sensor_id;sensor_type;location;lat;lon;timestamp;temperature;humidity
8093;DHT22;4089;52.420;13.334;2023-06-26T00:00:31;19.90;99.90
8093;DHT22;4089;52.420;13.334;2023-06-26T00:02:59;19.90;99.90
8093;DHT22;4089;52.420;13.334;2023-06-26T00:05:26;19.90;99.90
8093;DHT22;4089;52.420;13.334;2023-06-26T00:07:54;19.90;99.90
8093;DHT22;4089;52.420;13.334;2023-06-26T00:10:21;19.90;99.90
8093;DHT22;4089;52.420;13.334;2023-06-26T00:12:48;19.90;99.90
8093;DHT22;4089;52.420;13.334;2023-06-26T00:15:14;19.80;99.90
8093;DHT22;4089;52.420;13.334;2023-06-26T00:17:41;19.80;99.90
8093;DHT22;4089;52.420;13.334;2023-06-26T00:20:08;19.70;99.90
8093;DHT22;4089;52.420;13.334;2023-06-26T00:22:35;19.70;99.90
8093;DHT22;4089;52.420;13.334;2023-06-26T00:25:02;19.70;99.90
8093;DHT22;4089;52.420;13.334;2023-06-26T00:27:30;19.70;99.90
8093;DHT22;4089;52.420;13.334;2023-06-26T00:29:57;19.70;99.90
8093;DHT22;4089;52.420;13.334;2023-06-26T00:32:23;19.60;99.90
8093;DHT22;4089;52.420;13.334;2023-06-26T00:34:50;19.60;99.90
8093;DHT22;4089;52.420;13.334;2023-06-26T00:37:18;19.60;99.90
8093;DHT22;4089;52.420;13.334;2023-06-26T00:39:45;19.70;99.90
8093;DHT22;4089;52.420;13.334;2023-06-26T00:42:12;19.60;99.90
8093;DHT22;4089;52.420;13.334;2023-06-26T00:44:39;19.60;99.90
8093;DHT22;4089;52.420;13.334;2023-06-26T00:47:06;19.60;99.90
8093;DHT22;4089;52.420;13.334;2023-06-26T00:49:32;19.60;99.90
8093;DHT22;4089;52.420;13.334;2023-06-26T00:51:59;19.60;99.90
8093;DHT22;4089;52.420;13.334;2023-06-26T00:54:26;19.60;99.90
8093;DHT22;4089;52.420;13.334;2023-06-26T00:56:53;19.60;99.90
8093;DHT22;4089;52.420;13.334;2023-06-26T00:59:20;19.60;99.90
8093;DHT22;4089;52.420;13.334;2023-06-26T01:01:47;19.60;99.90
8093;DHT22;4089;52.420;13.334;2023-06-26T01:04:15;19.50;99.90
8093;DHT22;4089;52.420;13.334;2023-06-26T01:06:48;19.50;99.90
8093;DHT22;4089;52.420;13.334;2023-06-26T01:09:19;19.50;99.90
8093;DHT22;4089;52.420;13.334;2023-06-26T01:11:47;19.50;99.90
8093;DHT22;4089;52.420;13.334;2023-06-26T01:14:13;19.60;99.90
8093;DHT22;4089;52.420;13.334;2023-06-26T01:16:41;19.50;99.90
8093;DHT22;4089;52.420;13.334;2023-06-26T01:19:23;19.50;99.90
8093;DHT22;4089;52.420;13.334;2023-06-26T01:24:32;19.40;99.90
8093;DHT22;4089;52.420;13.334;2023-06-26T01:27:00;19.40;99.90
8093;DHT22;4089;52.420;13.334;2023-06-26T01:29:29;19.40;99.90
8093;DHT22;4089;52.420;13.334;2023-06-26T01:31:57;19.30;99.90
8093;DHT22;4089;52.420;13.334;2023-06-26T01:34:24;19.30;99.90
8093;DHT22;4089;52.420;13.334;2023-06-26T01:36:52;19.30;99.90
8093;DHT22;4089;52.420;13.334;2023-06-26T01:39:19;19.30;99.90
8093;DHT22;4089;52.420;13.334;2023-06-26T01:41:47;19.30;99.90
8093;DHT22;4089;52.420;13.334;2023-06-26T01:44:26;19.30;99.90
8093;DHT22;4089;52.420;13.334;2023-06-26T01:47:01;19.20;99.90
8093;DHT22;4089;52.420;13.334;2023-06-26T01:52:43;19.10;99.90
8093;DHT22;4089;52.420;13.334;2023-06-26T01:55:21;19.10;99.90
8093;DHT22;4089;52.420;13.334;2023-06-26T01:57:52;19.10;99.90
8093;DHT22;4089;52.420;13.334;2023-06-26T02:00:20;19.20;99.90
8093;DHT22;4089;52.420;13.334;2023-06-26T02:02:48;19.20;99.90
8093;DHT22;4089;52.420;13.334;2023-06-26T02:05:15;19.20;99.90
8093;DHT22;4089;52.420;13.334;2023-06-26T02:07:42;19.10;99.90
8093;DHT22;4089;52.420;13.334;2023-06-26T02:10:10;19.00;99.90
8093;DHT22;4089;52.420;13.334;2023-06-26T02:12:37;19.00;99.90
8093;DHT22;4089;52.420;13.334;2023-06-26T02:15:04;18.90;99.90
8093;DHT22;4089;52.420;13.334;2023-06-26T02:17:31;18.90;99.90
8093;DHT22;4089;52.420;13.334;2023-06-26T02:19:58;18.90;99.90
8093;DHT22;4089;52.420;13.334;2023-06-26T02:22:25;18.90;99.90
8093;DHT22;4089;52.420;13.334;2023-06-26T02:24:52;18.90;99.90
8093;DHT22;4089;52.420;13.334;2023-06-26T02:27:18;18.90;99.90
8093;DHT22;4089;52.420;13.334;2023-06-26T02:29:45;18.90;99.90
8093;DHT22;4089;52.420;13.334;2023-06-26T02:32:12;18.90;99.90
8093;DHT22;4089;52.420;13.334;2023-06-26T02:34:39;18.90;99.90
8093;DHT22;4089;52.420;13.334;2023-06-26T02:37:06;18.90;99.90
8093;DHT22;4089;52.420;13.334;2023-06-26T02:39:34;18.90;99.90
8093;DHT22;4089;52.420;13.334;2023-06-26T02:42:01;18.80;99.90
8093;DHT22;4089;52.420;13.334;2023-06-26T02:44:28;18.80;99.90
8093;DHT22;4089;52.420;13.334;2023-06-26T02:46:55;18.80;99.90
8093;DHT22;4089;52.420;13.334;2023-06-26T02:49:21;18.70;99.90
8093;DHT22;4089;52.420;13.334;2023-06-26T02:51:49;18.80;99.90
8093;DHT22;4089;52.420;13.334;2023-06-26T02:54:16;18.70;99.90
8093;DHT22;4089;52.420;13.334;2023-06-26T02:56:42;18.80;99.90
8093;DHT22;4089;52.420;13.334;2023-06-26T02:59:14;18.80;99.90
8093;DHT22;4089;52.420;13.334;2023-06-26T03:01:41;18.80;99.90
8093;DHT22;4089;52.420;13.334;2023-06-26T03:04:09;18.70;99.90
8093;DHT22;4089;52.420;13.334;2023-06-26T03:06:37;18.70;99.90
8093;DHT22;4089;52.420;13.334;2023-06-26T03:09:04;18.70;99.90
8093;DHT22;4089;52.420;13.334;2023-06-26T03:11:30;18.70;99.90
8093;DHT22;4089;52.420;13.334;2023-06-26T03:13:57;18.70;99.90
8093;DHT22;4089;52.420;13.334;2023-06-26T03:16:24;18.80;99.90
8093;DHT22;4089;52.420;13.334;2023-06-26T03:18:51;18.80;99.90
8093;DHT22;4089;52.420;13.334;2023-06-26T03:21:18;18.80;99.90
8093;DHT22;4089;52.420;13.334;2023-06-26T03:23:44;18.80;99.90
8093;DHT22;4089;52.420;13.334;2023-06-26T03:26:11;18.90;99.90
8093;DHT22;4089;52.420;13.334;2023-06-26T03:28:41;18.90;99.90
8093;DHT22;4089;52.420;13.334;2023-06-26T03:31:08;18.90;99.90
8093;DHT22;4089;52.420;13.334;2023-06-26T03:33:36;18.90;99.90
8093;DHT22;4089;52.420;13.334;2023-06-26T03:36:04;19.00;99.90
8093;DHT22;4089;52.420;13.334;2023-06-26T03:38:30;19.00;99.90
8093;DHT22;4089;52.420;13.334;2023-06-26T03:40:57;19.10;99.90
8093;DHT22;4089;52.420;13.334;2023-06-26T03:43:24;19.20;99.90
8093;DHT22;4089;52.420;13.334;2023-06-26T03:45:51;19.20;99.90
8093;DHT22;4089;52.420;13.334;2023-06-26T03:48:17;19.30;99.90
8093;DHT22;4089;52.420;13.334;2023-06-26T03:50:45;19.30;99.90
8093;DHT22;4089;52.420;13.334;2023-06-26T03:53:11;19.40;99.90
8093;DHT22;4089;52.420;13.334;2023-06-26T03:55:38;19.50;99.90
8093;DHT22;4089;52.420;13.334;2023-06-26T03:58:05;19.50;99.90
8093;DHT22;4089;52.420;13.334;2023-06-26T04:00:32;19.60;99.90
8093;DHT22;4089;52.420;13.334;2023-06-26T04:02:59;19.70;99.90
8093;DHT22;4089;52.420;13.334;2023-06-26T04:05:26;19.80;99.90
8093;DHT22;4089;52.420;13.334;2023-06-26T04:07:53;19.80;99.90
8093;DHT22;4089;52.420;13.334;2023-06-26T04:10:20;19.90;99.90
8093;DHT22;4089;52.420;13.334;2023-06-26T04:12:48;20.00;99.90
8093;DHT22;4089;52.420;13.334;2023-06-26T04:15:14;20.10;99.90
8093;DHT22;4089;52.420;13.334;2023-06-26T04:17:41;20.10;99.90
8093;DHT22;4089;52.420;13.334;2023-06-26T04:20:08;20.20;99.90
8093;DHT22;4089;52.420;13.334;2023-06-26T04:22:35;20.30;99.90
8093;DHT22;4089;52.420;13.334;2023-06-26T04:25:03;20.30;99.90
8093;DHT22;4089;52.420;13.334;2023-06-26T04:27:30;20.40;99.90
8093;DHT22;4089;52.420;13.334;2023-06-26T04:29:57;20.50;99.90
8093;DHT22;4089;52.420;13.334;2023-06-26T04:32:24;20.60;99.90
8093;DHT22;4089;52.420;13.334;2023-06-26T04:34:51;20.60;99.90
8093;DHT22;4089;52.420;13.334;2023-06-26T04:37:17;20.70;99.90
8093;DHT22;4089;52.420;13.334;2023-06-26T04:39:44;20.70;99.90
8093;DHT22;4089;52.420;13.334;2023-06-26T04:42:11;20.80;99.90
8093;DHT22;4089;52.420;13.334;2023-06-26T04:44:38;20.80;99.90
8093;DHT22;4089;52.420;13.334;2023-06-26T04:47:08;20.80;99.90
8093;DHT22;4089;52.420;13.334;2023-06-26T04:49:35;20.80;99.90
8093;DHT22;4089;52.420;13.334;2023-06-26T04:52:05;20.80;99.90
8093;DHT22;4089;52.420;13.334;2023-06-26T04:54:31;20.80;99.90
8093;DHT22;4089;52.420;13.334;2023-06-26T04:56:58;20.90;99.90
8093;DHT22;4089;52.420;13.334;2023-06-26T04:59:26;21.00;99.90
8093;DHT22;4089;52.420;13.334;2023-06-26T05:01:53;21.20;99.90
8093;DHT22;4089;52.420;13.334;2023-06-26T05:04:20;21.30;99.90
8093;DHT22;4089;52.420;13.334;2023-06-26T05:06:47;21.40;99.90
8093;DHT22;4089;52.420;13.334;2023-06-26T05:09:14;21.50;99.90
8093;DHT22;4089;52.420;13.334;2023-06-26T05:11:40;21.50;99.90
8093;DHT22;4089;52.420;13.334;2023-06-26T05:14:07;21.50;99.90
8093;DHT22;4089;52.420;13.334;2023-06-26T05:16:35;21.50;99.90
8093;DHT22;4089;52.420;13.334;2023-06-26T05:19:02;21.60;99.90
8093;DHT22;4089;52.420;13.334;2023-06-26T05:21:29;21.60;99.90
8093;DHT22;4089;52.420;13.334;2023-06-26T05:23:57;21.60;99.90
8093;DHT22;4089;52.420;13.334;2023-06-26T05:26:26;21.60;99.90
8093;DHT22;4089;52.420;13.334;2023-06-26T05:28:53;21.60;99.90
8093;DHT22;4089;52.420;13.334;2023-06-26T05:31:20;21.60;99.90
8093;DHT22;4089;52.420;13.334;2023-06-26T05:33:48;21.50;99.90
8093;DHT22;4089;52.420;13.334;2023-06-26T05:36:16;21.50;99.90
8093;DHT22;4089;52.420;13.334;2023-06-26T05:38:43;21.40;99.90
8093;DHT22;4089;52.420;13.334;2023-06-26T05:41:10;21.40;99.90
8093;DHT22;4089;52.420;13.334;2023-06-26T05:43:37;21.30;99.90
8093;DHT22;4089;52.420;13.334;2023-06-26T05:46:04;21.40;99.90
8093;DHT22;4089;52.420;13.334;2023-06-26T05:48:31;21.50;99.90
8093;DHT22;4089;52.420;13.334;2023-06-26T05:50:58;21.60;99.90
8093;DHT22;4089;52.420;13.334;2023-06-26T05:53:25;21.70;99.90
8093;DHT22;4089;52.420;13.334;2023-06-26T05:55:53;21.80;99.90
8093;DHT22;4089;52.420;13.334;2023-06-26T05:58:20;22.00;99.90
8093;DHT22;4089;52.420;13.334;2023-06-26T06:00:48;22.10;99.90
8093;DHT22;4089;52.420;13.334;2023-06-26T06:03:14;22.20;99.90
8093;DHT22;4089;52.420;13.334;2023-06-26T06:05:41;22.30;99.90
8093;DHT22;4089;52.420;13.334;2023-06-26T06:08:08;22.40;99.90
8093;DHT22;4089;52.420;13.334;2023-06-26T06:10:35;22.50;99.90
8093;DHT22;4089;52.420;13.334;2023-06-26T06:13:02;22.60;99.90
8093;DHT22;4089;52.420;13.334;2023-06-26T06:15:29;22.70;99.90
8093;DHT22;4089;52.420;13.334;2023-06-26T06:17:56;22.80;99.90
8093;DHT22;4089;52.420;13.334;2023-06-26T06:20:24;22.90;99.90
8093;DHT22;4089;52.420;13.334;2023-06-26T06:22:51;23.00;99.90
8093;DHT22;4089;52.420;13.334;2023-06-26T06:25:18;23.20;99.90
8093;DHT22;4089;52.420;13.334;2023-06-26T06:27:45;23.20;99.90
8093;DHT22;4089;52.420;13.334;2023-06-26T06:30:12;23.30;99.90
8093;DHT22;4089;52.420;13.334;2023-06-26T06:32:39;23.30;99.90
8093;DHT22;4089;52.420;13.334;2023-06-26T06:35:06;23.40;99.90
8093;DHT22;4089;52.420;13.334;2023-06-26T06:37:37;23.60;99.90
8093;DHT22;4089;52.420;13.334;2023-06-26T06:40:09;23.70;99.90
8093;DHT22;4089;52.420;13.334;2023-06-26T06:42:36;23.80;99.90
8093;DHT22;4089;52.420;13.334;2023-06-26T06:45:04;23.90;99.90
8093;DHT22;4089;52.420;13.334;2023-06-26T06:47:32;24.00;99.90
8093;DHT22;4089;52.420;13.334;2023-06-26T06:50:00;24.20;99.90
8093;DHT22;4089;52.420;13.334;2023-06-26T06:52:38;24.30;99.90
8093;DHT22;4089;52.420;13.334;2023-06-26T06:55:07;24.40;99.90
8093;DHT22;4089;52.420;13.334;2023-06-26T06:57:36;24.50;99.90
8093;DHT22;4089;52.420;13.334;2023-06-26T07:00:06;24.50;99.90
8093;DHT22;4089;52.420;13.334;2023-06-26T07:02:42;24.60;99.90
8093;DHT22;4089;52.420;13.334;2023-06-26T07:05:09;24.80;99.90
8093;DHT22;4089;52.420;13.334;2023-06-26T07:07:37;24.90;99.90
8093;DHT22;4089;52.420;13.334;2023-06-26T07:10:06;25.00;99.90
8093;DHT22;4089;52.420;13.334;2023-06-26T07:12:34;25.10;99.90
8093;DHT22;4089;52.420;13.334;2023-06-26T07:15:03;25.30;99.90
8093;DHT22;4089;52.420;13.334;2023-06-26T07:17:32;25.40;99.90
8093;DHT22;4089;52.420;13.334;2023-06-26T07:20:00;25.40;99.90
8093;DHT22;4089;52.420;13.334;2023-06-26T07:22:27;25.50;99.90
8093;DHT22;4089;52.420;13.334;2023-06-26T07:24:54;25.60;99.90
8093;DHT22;4089;52.420;13.334;2023-06-26T07:27:21;25.70;99.90
8093;DHT22;4089;52.420;13.334;2023-06-26T07:29:47;25.80;99.90
8093;DHT22;4089;52.420;13.334;2023-06-26T07:32:14;25.80;99.90
8093;DHT22;4089;52.420;13.334;2023-06-26T07:34:41;26.00;99.90
8093;DHT22;4089;52.420;13.334;2023-06-26T07:37:08;26.10;99.90
8093;DHT22;4089;52.420;13.334;2023-06-26T07:39:35;26.10;99.90
8093;DHT22;4089;52.420;13.334;2023-06-26T07:42:02;26.30;99.90
8093;DHT22;4089;52.420;13.334;2023-06-26T07:44:29;26.30;99.90
8093;DHT22;4089;52.420;13.334;2023-06-26T07:46:56;26.40;99.90
8093;DHT22;4089;52.420;13.334;2023-06-26T07:49:23;26.40;99.90
8093;DHT22;4089;52.420;13.334;2023-06-26T07:51:50;26.60;99.90
8093;DHT22;4089;52.420;13.334;2023-06-26T07:54:17;26.70;99.90
8093;DHT22;4089;52.420;13.334;2023-06-26T07:56:56;26.80;99.90
8093;DHT22;4089;52.420;13.334;2023-06-26T07:59:25;26.80;99.90
8093;DHT22;4089;52.420;13.334;2023-06-26T08:01:53;26.90;99.90
8093;DHT22;4089;52.420;13.334;2023-06-26T08:04:22;26.90;99.90
8093;DHT22;4089;52.420;13.334;2023-06-26T08:06:52;26.80;99.90
8093;DHT22;4089;52.420;13.334;2023-06-26T08:09:21;26.80;99.90
8093;DHT22;4089;52.420;13.334;2023-06-26T08:11:49;26.90;99.90
8093;DHT22;4089;52.420;13.334;2023-06-26T08:14:16;27.00;99.90
8093;DHT22;4089;52.420;13.334;2023-06-26T08:16:44;27.10;99.90
8093;DHT22;4089;52.420;13.334;2023-06-26T08:19:12;27.20;99.90
8093;DHT22;4089;52.420;13.334;2023-06-26T08:21:43;27.20;99.90
8093;DHT22;4089;52.420;13.334;2023-06-26T08:24:10;27.30;99.90
8093;DHT22;4089;52.420;13.334;2023-06-26T08:26:37;27.40;99.90
8093;DHT22;4089;52.420;13.334;2023-06-26T08:29:04;27.40;99.90
8093;DHT22;4089;52.420;13.334;2023-06-26T08:31:39;27.50;99.90
8093;DHT22;4089;52.420;13.334;2023-06-26T08:34:07;27.50;99.90
8093;DHT22;4089;52.420;13.334;2023-06-26T08:36:34;27.50;99.90
8093;DHT22;4089;52.420;13.334;2023-06-26T08:39:01;27.50;99.90
8093;DHT22;4089;52.420;13.334;2023-06-26T08:41:28;27.60;99.90
8093;DHT22;4089;52.420;13.334;2023-06-26T08:43:55;27.70;99.90
8093;DHT22;4089;52.420;13.334;2023-06-26T08:46:22;27.80;99.90
8093;DHT22;4089;52.420;13.334;2023-06-26T08:48:56;27.80;99.90
8093;DHT22;4089;52.420;13.334;2023-06-26T08:51:28;27.80;99.90
8093;DHT22;4089;52.420;13.334;2023-06-26T08:53:57;28.00;99.90
8093;DHT22;4089;52.420;13.334;2023-06-26T08:56:37;28.10;99.90
8093;DHT22;4089;52.420;13.334;2023-06-26T08:59:05;28.30;99.90
8093;DHT22;4089;52.420;13.334;2023-06-26T09:01:32;28.40;99.90
8093;DHT22;4089;52.420;13.334;2023-06-26T09:03:59;28.40;99.80
8093;DHT22;4089;52.420;13.334;2023-06-26T09:06:26;28.50;99.30
8093;DHT22;4089;52.420;13.334;2023-06-26T09:08:53;28.50;98.40
8093;DHT22;4089;52.420;13.334;2023-06-26T09:11:20;28.50;98.50
8093;DHT22;4089;52.420;13.334;2023-06-26T09:13:47;28.50;97.80
8093;DHT22;4089;52.420;13.334;2023-06-26T09:16:14;28.50;98.40
8093;DHT22;4089;52.420;13.334;2023-06-26T09:18:41;28.60;97.80
8093;DHT22;4089;52.420;13.334;2023-06-26T09:21:12;28.70;96.80
8093;DHT22;4089;52.420;13.334;2023-06-26T09:23:42;28.60;95.40
8093;DHT22;4089;52.420;13.334;2023-06-26T09:26:09;28.70;95.20
8093;DHT22;4089;52.420;13.334;2023-06-26T09:28:37;28.80;95.90
8093;DHT22;4089;52.420;13.334;2023-06-26T09:31:07;28.80;95.40
8093;DHT22;4089;52.420;13.334;2023-06-26T09:33:36;28.90;95.60
8093;DHT22;4089;52.420;13.334;2023-06-26T09:36:07;28.90;96.30
8093;DHT22;4089;52.420;13.334;2023-06-26T09:38:36;28.90;95.10
8093;DHT22;4089;52.420;13.334;2023-06-26T09:41:03;29.00;96.30
8093;DHT22;4089;52.420;13.334;2023-06-26T09:43:30;29.10;96.40
8093;DHT22;4089;52.420;13.334;2023-06-26T09:46:00;29.20;95.90
8093;DHT22;4089;52.420;13.334;2023-06-26T09:48:28;29.20;95.00
8093;DHT22;4089;52.420;13.334;2023-06-26T09:50:55;29.10;95.20
8093;DHT22;4089;52.420;13.334;2023-06-26T09:53:42;29.10;95.20
8093;DHT22;4089;52.420;13.334;2023-06-26T09:56:15;29.00;95.10
8093;DHT22;4089;52.420;13.334;2023-06-26T09:58:45;29.20;94.40
8093;DHT22;4089;52.420;13.334;2023-06-26T10:01:13;29.20;95.00
8093;DHT22;4089;52.420;13.334;2023-06-26T10:03:40;29.20;94.30
8093;DHT22;4089;52.420;13.334;2023-06-26T10:06:09;29.40;95.20
8093;DHT22;4089;52.420;13.334;2023-06-26T10:08:39;29.40;94.80
8093;DHT22;4089;52.420;13.334;2023-06-26T10:11:08;29.50;93.80
8093;DHT22;4089;52.420;13.334;2023-06-26T10:13:42;29.60;94.70
8093;DHT22;4089;52.420;13.334;2023-06-26T10:16:10;29.70;94.50
8093;DHT22;4089;52.420;13.334;2023-06-26T10:18:39;29.70;93.60
8093;DHT22;4089;52.420;13.334;2023-06-26T10:21:08;29.70;94.10
8093;DHT22;4089;52.420;13.334;2023-06-26T10:23:39;29.80;93.20
8093;DHT22;4089;52.420;13.334;2023-06-26T10:26:08;29.70;92.30
8093;DHT22;4089;52.420;13.334;2023-06-26T10:28:37;29.60;92.80
8093;DHT22;4089;52.420;13.334;2023-06-26T10:31:07;29.80;93.60
8093;DHT22;4089;52.420;13.334;2023-06-26T10:33:36;29.90;93.00
8093;DHT22;4089;52.420;13.334;2023-06-26T10:36:17;30.00;92.00
8093;DHT22;4089;52.420;13.334;2023-06-26T10:38:56;30.10;92.60
8093;DHT22;4089;52.420;13.334;2023-06-26T10:41:25;30.20;92.80
8093;DHT22;4089;52.420;13.334;2023-06-26T10:44:06;30.30;92.30
8093;DHT22;4089;52.420;13.334;2023-06-26T10:46:54;30.30;91.60
8093;DHT22;4089;52.420;13.334;2023-06-26T10:49:25;30.30;91.80
8093;DHT22;4089;52.420;13.334;2023-06-26T10:51:52;30.30;91.90
8093;DHT22;4089;52.420;13.334;2023-06-26T10:54:21;30.30;91.70
8093;DHT22;4089;52.420;13.334;2023-06-26T10:56:50;30.30;90.50
8093;DHT22;4089;52.420;13.334;2023-06-26T10:59:23;30.30;89.20
8093;DHT22;4089;52.420;13.334;2023-06-26T11:02:00;30.40;90.00
8093;DHT22;4089;52.420;13.334;2023-06-26T11:04:47;30.40;89.70
8093;DHT22;4089;52.420;13.334;2023-06-26T11:07:18;30.30;88.30
8093;DHT22;4089;52.420;13.334;2023-06-26T11:10:09;30.20;87.50
8093;DHT22;4089;52.420;13.334;2023-06-26T11:12:37;30.40;87.50
8093;DHT22;4089;52.420;13.334;2023-06-26T11:17:35;30.40;86.80
8093;DHT22;4089;52.420;13.334;2023-06-26T11:20:06;30.30;87.30
8093;DHT22;4089;52.420;13.334;2023-06-26T11:22:38;30.30;86.50
8093;DHT22;4089;52.420;13.334;2023-06-26T11:25:10;30.50;86.10
8093;DHT22;4089;52.420;13.334;2023-06-26T11:30:08;30.40;82.50
8093;DHT22;4089;52.420;13.334;2023-06-26T11:32:36;30.40;83.60
8093;DHT22;4089;52.420;13.334;2023-06-26T11:35:05;30.40;86.40
8093;DHT22;4089;52.420;13.334;2023-06-26T11:37:33;30.60;89.70
8093;DHT22;4089;52.420;13.334;2023-06-26T11:40:17;30.80;82.70
8093;DHT22;4089;52.420;13.334;2023-06-26T11:42:45;30.90;83.60
8093;DHT22;4089;52.420;13.334;2023-06-26T11:45:12;30.90;84.00
8093;DHT22;4089;52.420;13.334;2023-06-26T11:47:39;30.80;81.40
8093;DHT22;4089;52.420;13.334;2023-06-26T11:50:06;30.90;81.90
8093;DHT22;4089;52.420;13.334;2023-06-26T11:52:33;31.00;82.90
8093;DHT22;4089;52.420;13.334;2023-06-26T11:55:00;31.20;80.70
8093;DHT22;4089;52.420;13.334;2023-06-26T11:57:27;31.10;79.70
8093;DHT22;4089;52.420;13.334;2023-06-26T11:59:56;31.10;78.60
8093;DHT22;4089;52.420;13.334;2023-06-26T12:02:23;31.20;80.60
8093;DHT22;4089;52.420;13.334;2023-06-26T12:04:50;31.20;79.30
8093;DHT22;4089;52.420;13.334;2023-06-26T12:07:18;31.30;80.40
8093;DHT22;4089;52.420;13.334;2023-06-26T12:09:46;31.30;77.00
8093;DHT22;4089;52.420;13.334;2023-06-26T12:12:16;31.20;76.70
8093;DHT22;4089;52.420;13.334;2023-06-26T12:14:43;31.30;77.00
8093;DHT22;4089;52.420;13.334;2023-06-26T12:17:12;31.30;78.70
8093;DHT22;4089;52.420;13.334;2023-06-26T12:19:46;31.30;76.80
8093;DHT22;4089;52.420;13.334;2023-06-26T12:22:18;31.30;77.50
8093;DHT22;4089;52.420;13.334;2023-06-26T12:24:46;31.40;75.60
8093;DHT22;4089;52.420;13.334;2023-06-26T12:27:15;31.60;78.30
8093;DHT22;4089;52.420;13.334;2023-06-26T12:30:03;31.60;75.90
8093;DHT22;4089;52.420;13.334;2023-06-26T12:32:30;31.80;75.80
8093;DHT22;4089;52.420;13.334;2023-06-26T12:34:57;31.80;76.10
8093;DHT22;4089;52.420;13.334;2023-06-26T12:37:25;31.80;73.10
8093;DHT22;4089;52.420;13.334;2023-06-26T12:39:57;31.90;74.10
8093;DHT22;4089;52.420;13.334;2023-06-26T12:42:28;31.40;72.80
8093;DHT22;4089;52.420;13.334;2023-06-26T12:44:55;31.50;72.10
8093;DHT22;4089;52.420;13.334;2023-06-26T12:47:27;31.50;71.50
8093;DHT22;4089;52.420;13.334;2023-06-26T12:49:54;31.50;71.10
8093;DHT22;4089;52.420;13.334;2023-06-26T12:52:21;31.50;72.60
8093;DHT22;4089;52.420;13.334;2023-06-26T12:54:52;31.50;71.60
8093;DHT22;4089;52.420;13.334;2023-06-26T12:57:19;31.70;73.50
8093;DHT22;4089;52.420;13.334;2023-06-26T12:59:47;31.90;73.70
8093;DHT22;4089;52.420;13.334;2023-06-26T13:02:13;32.10;74.60
8093;DHT22;4089;52.420;13.334;2023-06-26T13:04:41;32.00;70.30
8093;DHT22;4089;52.420;13.334;2023-06-26T13:07:08;31.90;70.90
8093;DHT22;4089;52.420;13.334;2023-06-26T13:09:36;31.90;71.40
8093;DHT22;4089;52.420;13.334;2023-06-26T13:12:05;32.00;70.50
8093;DHT22;4089;52.420;13.334;2023-06-26T13:14:32;32.00;69.80
8093;DHT22;4089;52.420;13.334;2023-06-26T13:17:02;31.90;68.20
8093;DHT22;4089;52.420;13.334;2023-06-26T13:19:32;31.60;69.00
8093;DHT22;4089;52.420;13.334;2023-06-26T13:21:59;31.60;70.80
8093;DHT22;4089;52.420;13.334;2023-06-26T13:24:26;31.60;72.60
8093;DHT22;4089;52.420;13.334;2023-06-26T13:26:53;31.60;70.70
8093;DHT22;4089;52.420;13.334;2023-06-26T13:29:20;31.70;70.00
8093;DHT22;4089;52.420;13.334;2023-06-26T13:31:47;31.60;72.70
8093;DHT22;4089;52.420;13.334;2023-06-26T13:34:22;31.80;70.30
8093;DHT22;4089;52.420;13.334;2023-06-26T13:36:54;32.10;70.00
8093;DHT22;4089;52.420;13.334;2023-06-26T13:39:21;32.20;68.60
8093;DHT22;4089;52.420;13.334;2023-06-26T13:41:48;32.50;69.20
8093;DHT22;4089;52.420;13.334;2023-06-26T13:44:15;32.80;67.20
8093;DHT22;4089;52.420;13.334;2023-06-26T13:46:59;33.20;65.10
8093;DHT22;4089;52.420;13.334;2023-06-26T13:49:26;33.50;66.00
8093;DHT22;4089;52.420;13.334;2023-06-26T13:51:53;33.80;66.00
8093;DHT22;4089;52.420;13.334;2023-06-26T13:54:19;34.00;61.70
8093;DHT22;4089;52.420;13.334;2023-06-26T13:56:46;34.10;61.30
8093;DHT22;4089;52.420;13.334;2023-06-26T13:59:13;33.80;60.20
8093;DHT22;4089;52.420;13.334;2023-06-26T14:01:41;33.40;58.90
8093;DHT22;4089;52.420;13.334;2023-06-26T14:04:11;33.10;58.80
8093;DHT22;4089;52.420;13.334;2023-06-26T14:06:37;32.80;61.00
8093;DHT22;4089;52.420;13.334;2023-06-26T14:09:04;32.40;57.90
8093;DHT22;4089;52.420;13.334;2023-06-26T14:11:31;32.00;58.50
8093;DHT22;4089;52.420;13.334;2023-06-26T14:13:59;31.80;60.70
8093;DHT22;4089;52.420;13.334;2023-06-26T14:16:26;31.60;63.60
8093;DHT22;4089;52.420;13.334;2023-06-26T14:18:55;31.50;64.40
8093;DHT22;4089;52.420;13.334;2023-06-26T14:21:22;31.20;65.50
8093;DHT22;4089;52.420;13.334;2023-06-26T14:23:49;31.10;65.20
8093;DHT22;4089;52.420;13.334;2023-06-26T14:26:16;29.60;79.50
8093;DHT22;4089;52.420;13.334;2023-06-26T14:28:42;27.40;96.00
8093;DHT22;4089;52.420;13.334;2023-06-26T14:31:09;25.10;99.90
8093;DHT22;4089;52.420;13.334;2023-06-26T14:33:36;23.60;99.90
8093;DHT22;4089;52.420;13.334;2023-06-26T14:36:03;22.50;99.90
8093;DHT22;4089;52.420;13.334;2023-06-26T14:38:30;22.00;99.90
8093;DHT22;4089;52.420;13.334;2023-06-26T14:40:56;21.70;99.90
8093;DHT22;4089;52.420;13.334;2023-06-26T14:43:24;21.60;99.90
8093;DHT22;4089;52.420;13.334;2023-06-26T14:45:51;22.30;99.90
8093;DHT22;4089;52.420;13.334;2023-06-26T14:48:18;25.00;99.90
8093;DHT22;4089;52.420;13.334;2023-06-26T14:50:46;27.00;99.90
8093;DHT22;4089;52.420;13.334;2023-06-26T14:53:12;27.60;99.90
8093;DHT22;4089;52.420;13.334;2023-06-26T14:55:39;27.60;99.90
8093;DHT22;4089;52.420;13.334;2023-06-26T14:58:07;39.60;99.90
8093;DHT22;4089;52.420;13.334;2023-06-26T15:00:34;46.00;99.90
8093;DHT22;4089;52.420;13.334;2023-06-26T15:03:00;106.30;99.90
8093;DHT22;4089;52.420;13.334;2023-06-26T15:05:27;-40.00;99.90
8093;DHT22;4089;52.420;13.334;2023-06-26T15:07:54;-40.00;99.90
8093;DHT22;4089;52.420;13.334;2023-06-26T15:10:21;-40.00;99.90
8093;DHT22;4089;52.420;13.334;2023-06-26T15:12:48;-40.00;99.90
8093;DHT22;4089;52.420;13.334;2023-06-26T15:15:15;-40.00;99.90
8093;DHT22;4089;52.420;13.334;2023-06-26T15:17:43;124.90;99.90
8093;DHT22;4089;52.420;13.334;2023-06-26T15:20:10;124.90;99.90
8093;DHT22;4089;52.420;13.334;2023-06-26T15:22:37;124.90;99.90
8093;DHT22;4089;52.420;13.334;2023-06-26T15:25:04;124.90;99.90
8093;DHT22;4089;52.420;13.334;2023-06-26T15:27:31;111.70;99.90
8093;DHT22;4089;52.420;13.334;2023-06-26T15:29:58;100.80;99.90
8093;DHT22;4089;52.420;13.334;2023-06-26T15:32:24;89.80;99.90
8093;DHT22;4089;52.420;13.334;2023-06-26T15:34:51;84.00;99.90
8093;DHT22;4089;52.420;13.334;2023-06-26T15:37:18;77.70;99.90
8093;DHT22;4089;52.420;13.334;2023-06-26T15:39:45;70.00;99.90
8093;DHT22;4089;52.420;13.334;2023-06-26T15:42:12;62.30;99.90
8093;DHT22;4089;52.420;13.334;2023-06-26T15:44:39;59.00;99.90
8093;DHT22;4089;52.420;13.334;2023-06-26T15:47:06;55.60;99.90
8093;DHT22;4089;52.420;13.334;2023-06-26T15:49:33;54.00;99.90
8093;DHT22;4089;52.420;13.334;2023-06-26T15:52:03;52.30;99.90
8093;DHT22;4089;52.420;13.334;2023-06-26T15:54:30;50.60;99.90
8093;DHT22;4089;52.420;13.334;2023-06-26T15:56:56;49.80;99.90
8093;DHT22;4089;52.420;13.334;2023-06-26T15:59:23;48.70;99.90
8093;DHT22;4089;52.420;13.334;2023-06-26T16:01:50;47.90;99.90